Time;durP1;ratioP1;P1;durP2;ratioP2;P2;SDS_P1;SDS_P2;PMS_P1;PMS_P2;Temp;Humidity;BMP_temperature;BMP_pressure;BME280_temperature;BME280_humidity;BME280_pressure;Samples;Min_cycle;Max_cycle;Signal;HPM_P1;HPM_P2
2022/07/13 00:01:38;;;;;;;3.55;1.50;;;;;;;16.26;74.18;100658.91;2789217;84;21091;-92
2022/07/13 00:05:40;;;;;;;7.58;3.55;;;;;;;16.30;74.00;100660.77;2808236;83;20983;-92
2022/07/13 00:09:41;;;;;;;10.68;3.58;;;;;;;16.27;74.47;100652.55;2817648;83;21078;-92
2022/07/13 00:13:43;;;;;;;8.18;3.58;;;;;;;16.33;73.99;100655.12;2816563;83;21105;-92
2022/07/13 00:17:44;;;;;;;5.20;2.77;;;;;;;16.36;73.67;100645.41;2778348;85;21006;-93
2022/07/13 00:21:45;;;;;;;4.87;2.30;;;;;;;16.41;73.45;100651.66;2786146;82;21018;-93
2022/07/13 00:25:47;;;;;;;9.88;2.62;;;;;;;16.42;73.33;100650.14;2773543;83;21671;-92
2022/07/13 00:29:55;;;;;;;5.20;3.30;;;;;;;16.38;73.28;100651.46;2825021;83;21020;-93
2022/07/13 00:33:57;;;;;;;3.45;1.45;;;;;;;16.33;72.85;100653.77;2836495;82;21026;-92
2022/07/13 00:38:04;;;;;;;2.30;2.02;;;;;;;16.23;73.52;100652.52;2790135;84;21053;-92
2022/07/13 00:42:05;;;;;;;2.08;1.85;;;;;;;16.11;73.51;100650.56;2824828;83;21030;-92
2022/07/13 00:46:08;;;;;;;2.30;2.00;;;;;;;16.08;73.45;100648.68;2836610;83;20999;-92
2022/07/13 00:50:10;;;;;;;3.30;1.37;;;;;;;16.03;74.16;100642.94;2837728;82;21052;-93
2022/07/13 00:54:12;;;;;;;2.33;1.60;;;;;;;16.05;74.66;100640.94;2834189;82;21073;-93
2022/07/13 00:58:13;;;;;;;3.62;1.05;;;;;;;16.08;74.73;100643.31;2812172;83;21060;-94
2022/07/13 01:02:15;;;;;;;1.45;1.12;;;;;;;16.10;74.81;100640.80;2768452;83;21592;-93
2022/07/13 01:06:17;;;;;;;3.22;2.02;;;;;;;16.02;76.05;100635.88;2830626;83;21026;-93
2022/07/13 01:10:26;;;;;;;3.15;1.57;;;;;;;16.05;75.63;100634.23;2806689;84;21034;-93
2022/07/13 01:14:29;;;;;;;3.50;1.57;;;;;;;16.07;75.51;100638.42;2782978;83;21102;-92
2022/07/13 01:18:31;;;;;;;1.65;1.47;;;;;;;16.09;75.33;100631.58;2813687;82;21044;-94
2022/07/13 01:22:45;;;;;;;1.98;1.40;;;;;;;16.05;75.52;100627.52;2832748;82;21062;-93
2022/07/13 01:26:46;;;;;;;2.47;1.22;;;;;;;16.03;75.77;100627.66;2800224;83;21090;-93
2022/07/13 01:30:47;;;;;;;3.20;1.45;;;;;;;16.05;75.68;100632.38;2734285;86;21181;-93
2022/07/13 01:34:51;;;;;;;5.90;1.85;;;;;;;16.03;76.00;100637.05;2720298;86;21095;-93
2022/07/13 01:38:53;;;;;;;2.17;1.17;;;;;;;16.02;75.96;100623.81;2704919;86;21080;-93
2022/07/13 01:42:55;;;;;;;5.72;2.17;;;;;;;16.02;76.31;100628.66;2694821;86;21093;-92
2022/07/13 01:46:56;;;;;;;2.70;1.87;;;;;;;16.03;76.13;100621.47;2721500;86;21055;-92
2022/07/13 01:51:02;;;;;;;4.53;1.90;;;;;;;16.04;76.35;100625.33;2794546;84;21026;-92
2022/07/13 01:55:05;;;;;;;3.67;1.87;;;;;;;16.03;76.12;100622.30;2783206;84;21006;-94
2022/07/13 01:59:07;;;;;;;2.65;1.82;;;;;;;16.01;76.33;100619.41;2789964;84;21054;-92
2022/07/13 02:03:08;;;;;;;5.62;1.70;;;;;;;15.97;76.66;100622.41;2789920;84;21006;-92
2022/07/13 02:07:22;;;;;;;5.28;2.33;;;;;;;15.96;76.85;100621.23;2783265;84;21023;-93
2022/07/13 02:11:23;;;;;;;2.67;2.00;;;;;;;15.96;77.04;100620.72;2789935;84;20994;-92
2022/07/13 02:15:31;;;;;;;3.40;1.95;;;;;;;15.93;77.52;100612.98;2719481;86;21046;-91
2022/07/13 02:19:33;;;;;;;2.87;2.45;;;;;;;15.87;77.63;100614.05;2729619;86;21539;-94
2022/07/13 02:23:34;;;;;;;4.35;2.15;;;;;;;15.80;78.08;100611.99;2732816;85;21079;-93
2022/07/13 02:27:36;;;;;;;4.53;2.40;;;;;;;15.74;78.84;100603.22;2787835;83;21395;-93
2022/07/13 02:31:38;;;;;;;4.35;1.98;;;;;;;15.56;80.30;100605.38;2759033;84;21616;-92
2022/07/13 02:35:40;;;;;;;3.10;1.45;;;;;;;15.61;79.75;100599.55;2802653;83;21070;-92
2022/07/13 02:39:41;;;;;;;1.90;1.55;;;;;;;15.64;80.14;100592.56;2776680;83;21043;-93
2022/07/13 02:43:42;;;;;;;4.67;2.62;;;;;;;15.71;80.13;100600.34;2834785;82;21101;-91
2022/07/13 02:47:43;;;;;;;1.67;1.30;;;;;;;15.76;80.22;100598.55;2768760;85;21031;-92
2022/07/13 02:51:45;;;;;;;2.62;1.70;;;;;;;15.79;80.01;100593.36;2763381;85;21110;-92
2022/07/13 02:55:59;;;;;;;3.12;2.12;;;;;;;15.84;79.75;100593.25;2772517;85;21092;-92
2022/07/13 03:00:00;;;;;;;2.95;1.87;;;;;;;15.93;79.35;100592.86;2791494;83;20992;-93
2022/07/13 03:04:01;;;;;;;3.95;1.90;;;;;;;15.97;79.31;100594.75;2768190;85;21007;-92
2022/07/13 03:08:03;;;;;;;3.52;2.02;;;;;;;15.98;79.26;100603.97;2787518;83;21035;-94
2022/07/13 03:12:05;;;;;;;4.72;2.35;;;;;;;15.96;79.50;100596.58;2811775;83;21014;-92
2022/07/13 03:16:07;;;;;;;3.72;1.20;;;;;;;16.00;79.19;100607.85;2757116;83;21026;-94
2022/07/13 03:20:10;;;;;;;4.33;2.08;;;;;;;15.91;79.95;100602.05;2840895;83;21051;-92
2022/07/13 03:24:11;;;;;;;25.50;4.97;;;;;;;15.78;80.59;100604.59;2834026;82;21011;-93
2022/07/13 03:28:13;;;;;;;9.75;2.75;;;;;;;15.67;81.16;100602.98;2764278;85;21037;-93
2022/07/13 03:32:14;;;;;;;3.47;1.72;;;;;;;15.74;81.27;100597.86;2770032;84;21006;-92
2022/07/13 03:36:16;;;;;;;3.37;1.37;;;;;;;15.82;81.15;100595.25;2774104;84;21055;-93
2022/07/13 03:40:17;;;;;;;6.35;2.33;;;;;;;15.93;81.03;100592.03;2803950;84;21077;-93
2022/07/13 03:44:19;;;;;;;3.08;1.60;;;;;;;16.05;80.80;100581.39;2796279;84;21124;-92
2022/07/13 03:48:20;;;;;;;2.17;1.77;;;;;;;16.14;80.67;100570.23;2769798;84;21486;-92
2022/07/13 03:52:22;;;;;;;2.67;2.08;;;;;;;16.19;80.68;100575.97;2799996;83;21026;-90
2022/07/13 03:56:23;;;;;;;2.05;1.40;;;;;;;16.26;80.46;100573.51;2768938;84;21026;-92
2022/07/13 04:00:24;;;;;;;1.98;1.60;;;;;;;16.35;80.64;100577.95;2760697;85;21085;-91
2022/07/13 04:04:27;;;;;;;4.67;1.87;;;;;;;16.43;80.20;100577.17;2752224;85;21018;-90
2022/07/13 04:08:31;;;;;;;2.65;1.92;;;;;;;16.55;79.77;100581.27;2748514;85;21032;-91
2022/07/13 04:12:32;;;;;;;2.08;1.17;;;;;;;16.69;79.52;100582.52;2790647;83;21033;-91
2022/07/13 04:16:33;;;;;;;1.65;1.42;;;;;;;16.86;78.89;100587.98;2739536;84;21021;-91
2022/07/13 04:20:35;;;;;;;3.75;1.57;;;;;;;17.00;78.33;100586.60;2729513;85;21023;-92
2022/07/13 04:24:36;;;;;;;3.33;2.35;;;;;;;17.16;78.06;100585.83;2725495;85;21048;-92
2022/07/13 04:28:47;;;;;;;6.45;2.20;;;;;;;17.24;77.54;100590.39;2751120;84;21091;-94
2022/07/13 04:32:49;;;;;;;4.35;1.82;;;;;;;17.35;76.83;100591.94;2719838;85;21131;-94
2022/07/13 04:36:51;;;;;;;2.72;1.80;;;;;;;17.48;76.55;100584.23;2744553;85;21054;-94
2022/07/13 04:40:53;;;;;;;31.25;7.08;;;;;;;17.65;76.31;100582.44;2712352;85;21121;-92
2022/07/13 04:45:02;;;;;;;2.83;1.05;;;;;;;17.81;76.10;100573.54;2748476;85;21554;-94
2022/07/13 04:49:04;;;;;;;3.85;2.33;;;;;;;17.95;75.56;100572.03;2747419;85;21033;-93
2022/07/13 04:53:15;;;;;;;3.58;1.40;;;;;;;18.07;75.18;100566.36;2747806;85;21074;-94
2022/07/13 04:57:16;;;;;;;5.72;1.70;;;;;;;18.19;74.85;100568.20;2751199;85;21062;-94
2022/07/13 05:01:19;;;;;;;4.53;1.60;;;;;;;18.32;74.28;100570.38;2745077;85;21011;-94
2022/07/13 05:05:21;;;;;;;3.98;1.90;;;;;;;18.49;73.84;100575.26;2747415;85;21570;-93
2022/07/13 05:09:23;;;;;;;3.10;1.55;;;;;;;18.61;72.90;100574.39;2723527;85;21070;-93
2022/07/13 05:13:24;;;;;;;4.05;2.47;;;;;;;18.80;72.67;100581.23;2749374;85;21042;-95
2022/07/13 05:17:25;;;;;;;4.15;2.50;;;;;;;18.96;72.31;100584.38;2749381;85;21102;-94
2022/07/13 05:21:28;;;;;;;2.83;2.12;;;;;;;19.16;72.07;100586.69;2749055;85;21542;-95
2022/07/13 05:25:29;;;;;;;4.92;1.70;;;;;;;19.31;71.16;100579.55;2735670;85;21104;-95
2022/07/13 05:29:31;;;;;;;7.33;1.82;;;;;;;19.41;70.39;100575.28;2742297;85;21050;-94
2022/07/13 05:33:32;;;;;;;3.75;1.92;;;;;;;19.58;70.19;100580.58;2747987;85;21050;-94
2022/07/13 05:37:34;;;;;;;4.50;2.00;;;;;;;19.74;69.08;100568.83;2747198;85;21042;-94
2022/07/13 05:41:36;;;;;;;3.72;1.42;;;;;;;19.90;69.07;100571.94;2717979;85;21092;-94
2022/07/13 05:45:37;;;;;;;2.60;1.20;;;;;;;20.03;68.46;100576.77;2740860;85;21094;-93
2022/07/13 05:49:39;;;;;;;2.95;1.70;;;;;;;20.09;67.83;100581.43;2742026;85;21089;-93
2022/07/13 05:53:40;;;;;;;5.03;1.60;;;;;;;20.32;67.88;100584.60;2751388;85;21082;-94
2022/07/13 05:57:42;;;;;;;2.42;1.75;;;;;;;20.53;67.74;100583.38;2741427;85;21026;-94
2022/07/13 06:01:43;;;;;;;3.92;1.27;;;;;;;20.76;66.86;100578.94;2725941;85;21056;-94
2022/07/13 06:05:45;;;;;;;5.03;1.32;;;;;;;20.89;65.94;100571.05;2737088;85;21111;-95
2022/07/13 06:09:46;;;;;;;6.95;1.72;;;;;;;21.53;64.28;100568.18;2720185;85;21338;-95
2022/07/13 06:13:48;;;;;;;2.27;1.30;;;;;;;22.44;63.25;100561.82;2748960;85;20986;-94
2022/07/13 06:17:50;;;;;;;5.85;1.12;;;;;;;23.12;60.54;100567.13;2720135;85;21482;-94
2022/07/13 06:21:51;;;;;;;3.08;1.02;;;;;;;23.86;58.61;100567.89;2723219;85;21032;-93
2022/07/13 06:25:56;;;;;;;1.87;0.98;;;;;;;24.51;57.95;100578.14;2740935;85;21009;-94
2022/07/13 06:29:58;;;;;;;3.07;0.73;;;;;;;24.89;56.79;100580.19;2746913;84;21075;-94
2022/07/13 06:34:05;;;;;;;0.62;0.47;;;;;;;24.87;56.75;100572.77;2794542;82;21011;-93
2022/07/13 06:38:08;;;;;;;2.05;0.88;;;;;;;24.90;56.88;100568.25;2759724;84;21527;-94
2022/07/13 06:42:09;;;;;;;2.33;0.88;;;;;;;24.93;57.07;100577.34;2832498;82;21061;-94
2022/07/13 06:46:11;;;;;;;40.73;7.28;;;;;;;25.23;57.62;100573.25;2810415;83;21041;-93
2022/07/13 06:50:13;;;;;;;1.02;0.60;;;;;;;25.23;56.07;100582.27;2841853;82;21006;-95
2022/07/13 06:54:26;;;;;;;10.78;2.45;;;;;;;24.71;56.41;100579.98;2824682;82;21514;-92
2022/07/13 06:58:27;;;;;;;6.92;1.10;;;;;;;24.41;57.70;100587.27;2767546;84;20988;-93
2022/07/13 07:02:29;;;;;;;3.95;1.42;;;;;;;24.27;58.45;100583.19;2777634;84;21079;-93
2022/07/13 07:06:31;;;;;;;4.17;1.25;;;;;;;24.29;58.76;100582.45;2832128;82;21054;-93
2022/07/13 07:10:32;;;;;;;1.32;0.90;;;;;;;24.81;58.74;100580.43;2810533;82;21036;-94
2022/07/13 07:14:37;;;;;;;3.85;2.12;;;;;;;25.13;57.82;100572.34;2742688;83;30943;-94
2022/07/13 07:18:39;;;;;;;2.30;1.22;;;;;;;25.24;57.87;100579.00;2750828;84;21023;-94
2022/07/13 07:22:40;;;;;;;1.10;0.90;;;;;;;25.46;58.04;100569.19;2748593;84;21088;-94
2022/07/13 07:26:42;;;;;;;2.27;0.80;;;;;;;26.19;56.44;100569.77;2792777;83;21136;-94
2022/07/13 07:30:44;;;;;;;39.92;6.70;;;;;;;26.74;55.35;100555.92;2775546;84;21578;-94
2022/07/13 07:35:19;;;;;;;8.15;2.40;;;;;;;27.02;53.66;100551.83;2801435;84;21082;-94
2022/07/13 07:39:21;;;;;;;2.40;1.20;;;;;;;26.79;53.38;100550.61;2836585;78;21055;-91
2022/07/13 07:43:25;;;;;;;1.52;0.90;;;;;;;26.65;53.13;100531.65;2760131;84;21403;-90
2022/07/13 07:47:27;;;;;;;9.80;2.02;;;;;;;26.37;53.74;100562.15;2809352;83;21031;-85
2022/07/13 07:51:44;;;;;;;2.33;1.15;;;;;;;26.33;53.16;100564.48;2818945;82;21098;-91
2022/07/13 07:55:46;;;;;;;3.80;1.17;;;;;;;26.55;53.84;100565.45;2789218;83;22224;-92
2022/07/13 07:59:48;;;;;;;1.22;0.80;;;;;;;26.27;53.00;100559.94;2823762;83;21042;-92
2022/07/13 08:03:50;;;;;;;2.47;0.70;;;;;;;26.01;52.88;100564.53;2793096;84;21005;-92
2022/07/13 08:07:51;;;;;;;1.00;0.68;;;;;;;25.77;53.69;100565.66;2824705;83;21063;-92
2022/07/13 08:12:09;;;;;;;2.40;0.60;;;;;;;25.47;54.32;100558.09;2811994;83;21186;-93
2022/07/13 08:16:39;;;;;;;1.65;1.00;;;;;;;25.37;54.36;100560.44;2747950;83;21090;-93
2022/07/13 08:20:45;;;;;;;2.30;0.60;;;;;;;25.61;53.93;100558.02;2774331;85;21004;-91
2022/07/13 08:24:46;;;;;;;2.45;0.72;;;;;;;25.76;54.27;100558.55;2774259;83;21415;-90
2022/07/13 08:28:50;;;;;;;2.12;1.35;;;;;;;25.65;53.62;100559.23;2834684;81;21014;-90
2022/07/13 08:32:52;;;;;;;2.60;0.65;;;;;;;25.73;54.02;100559.50;2819591;82;20995;-91
2022/07/13 08:41:12;;;;;;;6.47;1.05;;;;;;;26.38;53.22;100551.03;2820094;83;21035;-92
2022/07/13 08:45:14;;;;;;;2.70;1.25;;;;;;;26.74;52.27;100551.83;2837082;83;21059;-93
2022/07/13 08:49:15;;;;;;;1.45;0.50;;;;;;;26.90;52.03;100553.95;2804108;83;21541;-90
2022/07/13 08:53:16;;;;;;;0.93;0.85;;;;;;;27.00;52.14;100556.69;2835995;83;21050;-91
2022/07/13 08:57:19;;;;;;;2.92;1.02;;;;;;;27.08;51.65;100544.08;2831462;83;21106;-94
2022/07/13 09:01:21;;;;;;;2.02;0.98;;;;;;;27.17;50.22;100540.50;2834063;83;20985;-92
2022/07/13 09:05:25;;;;;;;0.95;0.50;;;;;;;27.56;50.29;100537.48;2798600;83;21035;-87
2022/07/13 09:09:35;;;;;;;2.52;0.80;;;;;;;27.90;46.19;100533.16;2803050;83;21034;-92
2022/07/13 09:13:44;;;;;;;1.17;0.60;;;;;;;28.14;46.62;100517.31;2825835;83;21070;-88
2022/07/13 09:17:47;;;;;;;1.92;1.07;;;;;;;28.58;43.62;100515.05;2796950;84;21015;-90
2022/07/13 09:21:49;;;;;;;1.55;0.60;;;;;;;28.89;45.05;100512.14;2746672;83;21516;-92
2022/07/13 09:25:53;;;;;;;1.37;0.53;;;;;;;29.04;43.29;100512.45;2767591;83;21599;-92
2022/07/13 09:29:55;;;;;;;;;;;;;;;29.07;43.29;100511.95;2812635;83;21031;-91
2022/07/13 09:33:56;;;;;;;0.62;0.42;;;;;;;29.01;42.98;100508.84;2809312;83;20283;-93
2022/07/13 09:37:57;;;;;;;1.37;0.70;;;;;;;28.58;44.60;100502.73;2837552;83;21083;-91
2022/07/13 09:41:58;;;;;;;0.95;0.85;;;;;;;28.53;44.15;100515.46;2813187;83;21619;-91
2022/07/13 09:46:09;;;;;;;16.57;1.35;;;;;;;28.62;45.30;100505.83;2787620;82;21007;-93
2022/07/13 09:50:12;;;;;;;5.22;1.17;;;;;;;28.98;45.11;100491.50;2835961;83;21580;-92
2022/07/13 09:54:13;;;;;;;0.37;0.20;;;;;;;29.11;41.99;100489.03;2837012;83;21025;-91
2022/07/13 09:58:19;;;;;;;2.05;0.80;;;;;;;29.20;42.57;100492.21;2806904;83;21022;-91
2022/07/13 10:02:20;;;;;;;39.30;8.15;;;;;;;29.35;40.87;100486.17;2841887;83;21608;-91
2022/07/13 10:06:22;;;;;;;2.30;0.53;;;;;;;29.58;39.73;100489.88;2818050;83;21043;-89
2022/07/13 10:10:24;;;;;;;0.95;0.70;;;;;;;29.81;39.91;100490.78;2837643;83;21043;-91
2022/07/13 10:14:27;;;;;;;0.50;0.45;;;;;;;29.90;38.44;100489.30;2795990;83;21061;-91
2022/07/13 10:18:36;;;;;;;0.40;0.30;;;;;;;29.83;38.96;100485.88;2835839;83;21592;-92
2022/07/13 10:22:43;;;;;;;20.72;4.70;;;;;;;29.69;39.37;100482.65;2827220;83;21090;-91
2022/07/13 10:26:48;;;;;;;4.33;0.78;;;;;;;29.41;41.37;100467.92;2824163;83;21022;-94
2022/07/13 10:30:50;;;;;;;3.40;0.82;;;;;;;29.20;41.92;100459.34;2789384;83;21046;-94
2022/07/13 10:35:10;;;;;;;2.70;0.75;;;;;;;28.79;43.70;100457.50;2793404;83;21563;-94
2022/07/13 10:39:11;;;;;;;1.27;0.78;;;;;;;28.87;45.00;100464.47;2806963;83;21578;-93
2022/07/13 10:43:15;;;;;;;0.62;0.40;;;;;;;29.04;44.28;100448.62;2780986;84;21055;-88
2022/07/13 10:47:20;;;;;;;2.50;0.70;;;;;;;29.26;43.61;100444.66;2791633;84;21083;-91
2022/07/13 10:51:21;;;;;;;3.83;0.78;;;;;;;29.44;43.39;100442.23;2780824;83;21072;-89
2022/07/13 10:55:23;;;;;;;3.55;0.55;;;;;;;29.64;41.64;100435.43;2834621;83;21620;-90
2022/07/13 10:59:48;;;;;;;7.35;1.12;;;;;;;29.89;40.08;100436.37;2855937;82;21168;-90
2022/07/13 11:03:50;;;;;;;6.78;1.52;;;;;;;30.11;39.18;100445.76;2805961;83;21088;-93
2022/07/13 11:07:53;;;;;;;1.95;0.62;;;;;;;30.34;37.33;100442.78;2821050;83;21095;-90
2022/07/13 11:11:54;;;;;;;0.60;0.33;;;;;;;30.23;38.01;100443.71;2788630;83;20992;-90
2022/07/13 11:15:56;;;;;;;4.03;0.98;;;;;;;30.26;38.05;100436.90;2791731;83;21057;-92
2022/07/13 11:20:11;;;;;;;29.65;2.95;;;;;;;30.22;38.07;100429.71;2768521;84;21035;-92
2022/07/13 11:28:50;;;;;;;0.40;0.35;;;;;;;30.41;40.81;100414.31;2782245;83;20143;-93
2022/07/13 11:32:52;;;;;;;2.98;0.72;;;;;;;30.39;39.32;100405.50;2802026;83;20999;-93
2022/07/13 11:36:57;;;;;;;0.68;0.45;;;;;;;30.39;39.53;100394.00;2772546;84;21066;-94
2022/07/13 11:40:58;;;;;;;;;;;;;;;30.28;37.13;100397.17;2801280;83;21037;-90
2022/07/13 11:45:00;;;;;;;0.40;0.20;;;;;;;30.40;36.76;100391.55;2776275;84;20096;-92
2022/07/13 11:49:04;;;;;;;16.93;2.62;;;;;;;30.53;36.46;100380.71;2780978;84;21032;-94
2022/07/13 11:53:06;;;;;;;;;;;;;;;30.78;36.62;100379.34;2781688;84;21103;-90
2022/07/13 11:57:07;;;;;;;0.57;0.30;;;;;;;31.18;36.54;100375.87;2763807;84;20147;-87
2022/07/13 12:01:13;;;;;;;1.45;0.47;;;;;;;31.49;36.89;100365.13;2772907;83;21230;-90
2022/07/13 12:05:24;;;;;;;0.98;0.40;;;;;;;31.65;36.00;100364.70;2828743;83;21070;-92
2022/07/13 12:09:26;;;;;;;4.65;0.98;;;;;;;31.68;35.72;100370.20;2820491;83;21084;-90
2022/07/13 12:13:34;;;;;;;2.50;0.93;;;;;;;31.63;35.56;100369.08;2761449;83;21020;-90
2022/07/13 12:17:48;;;;;;;0.85;0.30;;;;;;;31.12;36.61;100372.25;2799986;83;21004;-93
2022/07/13 12:21:57;;;;;;;3.27;0.65;;;;;;;30.97;37.40;100363.88;2835382;83;22244;-94
2022/07/13 12:26:08;;;;;;;0.78;0.78;;;;;;;30.93;37.56;100353.95;2793676;84;20996;-94
2022/07/13 12:30:12;;;;;;;1.10;0.60;;;;;;;30.89;38.68;100352.28;2826268;83;21012;-92
2022/07/13 12:34:13;;;;;;;45.80;5.12;;;;;;;31.37;40.00;100345.28;2824027;83;21003;-91
2022/07/13 12:38:15;;;;;;;0.70;0.40;;;;;;;31.58;37.60;100346.22;2821310;83;21094;-92
2022/07/13 12:42:20;;;;;;;9.10;1.87;;;;;;;31.99;37.62;100332.72;2838734;83;21042;-92
2022/07/13 12:46:20;;;;;;;2.65;1.00;;;;;;;32.27;37.12;100340.27;2810106;83;21106;-93
2022/07/13 12:50:30;;;;;;;1.52;0.80;;;;;;;32.28;36.74;100325.94;2818225;83;21077;-88
2022/07/13 12:54:53;;;;;;;1.72;0.80;;;;;;;32.56;36.41;100315.59;2816526;83;21011;-94
2022/07/13 12:59:12;;;;;;;;;;;;;;;;;;;;;
2022/07/13 13:03:02;;;;;;;3.05;1.12;;;;;;;32.36;37.64;100309.48;2768411;84;20996;-58
2022/07/13 13:07:04;;;;;;;4.80;1.27;;;;;;;32.41;37.28;100318.59;2774937;84;21055;-59
2022/07/13 13:11:05;;;;;;;1.47;0.70;;;;;;;32.61;36.61;100306.77;2787137;84;20945;-57
2022/07/13 13:15:11;;;;;;;4.78;1.07;;;;;;;32.38;35.99;100309.50;2825313;82;20989;-58
2022/07/13 13:19:14;;;;;;;1.40;0.82;;;;;;;32.55;36.98;100306.48;2818968;84;21004;-57
2022/07/13 13:23:18;;;;;;;18.67;3.35;;;;;;;32.71;37.71;100294.93;2839360;84;21029;-58
2022/07/13 13:27:21;;;;;;;2.70;0.75;;;;;;;32.67;36.89;100297.16;2817752;83;20949;-58
2022/07/13 13:31:23;;;;;;;0.70;0.65;;;;;;;32.75;36.84;100289.71;2827802;82;21065;-57
2022/07/13 13:35:26;;;;;;;2.05;0.60;;;;;;;33.28;37.53;100285.84;2814766;83;20969;-58
2022/07/13 13:39:28;;;;;;;1.07;0.80;;;;;;;33.68;36.35;100286.87;2802727;84;21082;-59
2022/07/13 13:43:33;;;;;;;4.50;1.07;;;;;;;34.05;35.12;100264.09;2802451;82;20953;-59
2022/07/13 13:47:35;;;;;;;1.15;0.70;;;;;;;34.01;34.09;100270.77;2782875;85;21059;-58
2022/07/13 13:51:37;;;;;;;0.68;0.60;;;;;;;33.85;33.88;100271.34;2769818;84;20981;-58
2022/07/13 13:59:49;;;;;;;3.80;0.95;;;;;;;33.04;36.08;100276.80;2890443;80;21094;-92
2022/07/13 14:03:51;;;;;;;5.50;1.05;;;;;;;32.75;35.71;100271.81;2812385;83;21035;-93
2022/07/13 14:07:54;;;;;;;4.37;0.50;;;;;;;32.51;35.77;100274.27;2829944;82;21054;-92
2022/07/13 14:12:00;;;;;;;1.17;0.62;;;;;;;32.15;35.99;100268.13;2824525;82;20984;-93
2022/07/13 14:20:12;;;;;;;84.00;14.80;;;;;;;31.98;35.79;100254.05;2883537;81;21051;-55
2022/07/13 14:24:14;;;;;;;0.75;0.70;;;;;;;32.16;35.25;100249.15;2826957;78;20931;-57
2022/07/13 14:28:23;;;;;;;2.25;0.30;;;;;;;32.43;33.45;100246.77;2890342;81;21027;-57
2022/07/13 14:32:25;;;;;;;2.67;0.50;;;;;;;32.73;33.90;100241.81;2895012;81;21050;-57
2022/07/13 14:36:43;;;;;;;1.10;0.23;;;;;;;32.86;33.30;100234.92;2910010;81;20971;-57
2022/07/13 14:40:45;;;;;;;1.15;0.70;;;;;;;32.48;32.93;100230.25;2878778;81;21010;-57
2022/07/13 14:44:47;;;;;;;1.15;0.57;;;;;;;32.29;33.00;100227.16;2915310;80;21074;-57
2022/07/13 14:48:55;;;;;;;2.12;1.25;;;;;;;32.38;33.28;100224.19;2899735;81;20988;-57
2022/07/13 14:53:00;;;;;;;7.65;1.00;;;;;;;32.44;32.87;100229.15;2916794;81;20995;-58
2022/07/13 14:57:20;;;;;;;;;;;;;;;32.39;32.38;100225.84;2919430;81;20995;-57
2022/07/13 15:01:22;;;;;;;5.83;0.57;;;;;;;32.67;32.72;100230.51;2916478;80;20709;-57
2022/07/13 15:05:39;;;;;;;3.77;0.98;;;;;;;32.36;32.75;100228.30;2883689;81;21054;-57
2022/07/13 15:09:41;;;;;;;1.50;0.33;;;;;;;31.95;33.56;100227.09;2910936;81;20964;-57
2022/07/13 15:17:52;;;;;;;0.98;0.85;;;;;;;31.49;34.61;100213.44;2837575;82;21077;-93
2022/07/13 15:21:54;;;;;;;1.77;1.07;;;;;;;31.54;35.14;100209.05;2853269;81;21045;-95
2022/07/13 15:25:57;;;;;;;2.00;0.50;;;;;;;31.52;34.91;100211.25;2842383;81;21045;-95
2022/07/13 15:29:58;;;;;;;1.77;0.82;;;;;;;31.28;33.67;100214.44;2873763;81;21546;-93
2022/07/13 15:34:00;;;;;;;0.78;0.70;;;;;;;31.01;33.25;100211.21;2850495;81;21089;-96
2022/07/13 15:38:02;;;;;;;1.15;0.37;;;;;;;30.99;33.82;100206.00;2846621;81;20980;-94
2022/07/13 15:42:04;;;;;;;11.28;3.42;;;;;;;30.92;32.43;100211.72;2898701;81;20956;-95
2022/07/13 15:46:05;;;;;;;0.40;0.30;;;;;;;30.90;33.19;100211.69;2854483;81;21132;-95
2022/07/13 15:50:07;;;;;;;13.10;3.62;;;;;;;30.68;32.83;100205.77;2881022;81;21557;-92
2022/07/13 15:54:09;;;;;;;0.93;0.40;;;;;;;30.74;33.18;100206.64;2863918;81;21090;-96
2022/07/13 15:58:10;;;;;;;0.68;0.42;;;;;;;30.81;33.92;100199.00;2894108;81;21120;-95
2022/07/13 16:02:12;;;;;;;0.68;0.40;;;;;;;30.91;33.93;100190.84;2864943;81;21008;-93
2022/07/13 16:06:14;;;;;;;0.82;0.50;;;;;;;30.92;33.90;100197.98;2849083;81;21011;-94
2022/07/13 16:10:15;;;;;;;0.53;0.50;;;;;;;30.88;33.70;100188.64;2841939;83;20969;-91
2022/07/13 16:14:18;;;;;;;2.55;0.62;;;;;;;30.94;33.64;100180.42;2842731;83;21039;-92
2022/07/13 16:18:20;;;;;;;0.82;0.60;;;;;;;31.22;34.14;100181.14;2835707;82;21100;-93
2022/07/13 16:22:22;;;;;;;0.45;0.25;;;;;;;31.01;34.06;100172.77;2873974;82;21021;-92
2022/07/13 16:26:23;;;;;;;4.70;1.00;;;;;;;31.00;34.98;100173.86;2879841;81;21080;-95
2022/07/13 16:30:25;;;;;;;39.88;6.25;;;;;;;30.84;34.72;100164.15;2867422;80;21054;-91
2022/07/13 16:34:27;;;;;;;3.52;0.80;;;;;;;30.56;34.97;100178.48;2846577;82;21028;-92
2022/07/13 16:38:28;;;;;;;1.25;0.33;;;;;;;30.53;35.85;100179.02;2839785;82;21624;-93
2022/07/13 16:42:30;;;;;;;2.50;0.68;;;;;;;30.52;35.93;100169.13;2888750;81;21023;-94
2022/07/13 16:46:31;;;;;;;2.22;0.53;;;;;;;30.60;36.25;100164.52;2837780;82;21036;-93
2022/07/13 16:50:33;;;;;;;1.02;0.40;;;;;;;30.62;36.42;100168.41;2809888;82;20993;-92
2022/07/13 16:54:35;;;;;;;4.10;0.47;;;;;;;30.50;36.30;100171.31;2872650;82;21068;-94
2022/07/13 16:58:37;;;;;;;1.20;0.50;;;;;;;30.53;36.70;100171.31;2872006;82;21060;-95
2022/07/13 17:02:39;;;;;;;2.22;0.55;;;;;;;30.50;37.08;100172.68;2897082;81;21041;-94
2022/07/13 17:06:41;;;;;;;0.50;0.50;;;;;;;30.39;37.22;100165.44;2855007;82;21746;-94
2022/07/13 17:10:42;;;;;;;4.12;0.60;;;;;;;30.29;37.41;100168.92;2864440;81;21047;-94
2022/07/13 17:14:44;;;;;;;1.25;0.95;;;;;;;30.11;37.35;100164.09;2875759;81;21005;-94
2022/07/13 17:18:58;;;;;;;44.77;8.13;;;;;;;30.02;37.57;100161.55;2910336;81;21043;-94
2022/07/13 17:23:02;;;;;;;16.93;1.37;;;;;;;29.89;38.01;100168.25;2848469;81;21005;-91
2022/07/13 17:27:03;;;;;;;2.98;0.80;;;;;;;29.82;38.25;100176.67;2893602;81;21092;-92
2022/07/13 17:31:05;;;;;;;4.90;0.65;;;;;;;29.70;38.50;100171.34;2845008;82;21052;-93
2022/07/13 17:35:08;;;;;;;50.25;9.93;;;;;;;29.67;39.03;100175.13;2907892;81;21085;-95
2022/07/13 17:39:09;;;;;;;19.20;3.20;;;;;;;29.59;39.60;100168.19;2915345;81;20992;-92
2022/07/13 17:43:11;;;;;;;9.90;1.52;;;;;;;29.50;39.80;100167.28;2916235;81;21064;-94
2022/07/13 17:47:12;;;;;;;187.03;38.35;;;;;;;29.39;39.57;100168.19;2817902;82;21034;-93
2022/07/13 17:51:14;;;;;;;36.85;5.35;;;;;;;29.28;39.78;100169.13;2876904;81;21007;-95
2022/07/13 17:55:16;;;;;;;199.42;42.25;;;;;;;29.13;40.10;100166.49;2867490;81;21021;-91
2022/07/13 17:59:18;;;;;;;11.78;2.83;;;;;;;29.05;40.38;100165.54;2867249;81;21063;-89
2022/07/13 18:03:21;;;;;;;38.20;7.35;;;;;;;28.97;40.70;100159.14;2829122;82;21029;-88
2022/07/13 18:07:26;;;;;;;52.95;8.35;;;;;;;28.86;40.92;100165.82;2852799;81;21027;-89
2022/07/13 18:11:28;;;;;;;26.20;8.63;;;;;;;28.70;41.49;100162.00;2838288;82;21009;-86
2022/07/13 18:15:30;;;;;;;32.13;7.47;;;;;;;28.40;42.28;100162.34;2790732;82;21659;-90
2022/07/13 18:19:32;;;;;;;16.10;3.55;;;;;;;28.24;42.40;100164.81;2884538;81;21021;-93
2022/07/13 18:23:48;;;;;;;3.10;1.45;;;;;;;28.13;42.65;100169.23;2864470;81;20982;-94
2022/07/13 18:27:52;;;;;;;11.73;2.90;;;;;;;28.08;43.19;100162.32;2874642;82;21072;-93
2022/07/13 18:31:55;;;;;;;;;;;;;;;28.01;44.13;100159.73;2845534;82;21075;-92
2022/07/13 18:40:10;;;;;;;22.27;4.20;;;;;;;27.86;44.88;100163.55;2847240;82;21200;-92
2022/07/13 18:48:22;;;;;;;20.15;4.75;;;;;;;27.39;46.03;100132.56;2838364;83;21082;-59
2022/07/13 18:52:24;;;;;;;58.92;10.00;;;;;;;27.30;45.48;100136.73;2835426;82;21012;-59
2022/07/13 18:56:25;;;;;;;13.05;2.27;;;;;;;27.30;45.48;100136.73;2831103;82;20978;-60
2022/07/13 19:00:27;;;;;;;4.90;1.27;;;;;;;27.21;45.71;100155.37;2804534;82;21042;-60
2022/07/13 19:04:28;;;;;;;11.08;1.15;;;;;;;27.21;45.71;100155.37;2831563;82;21063;-59
2022/07/13 19:08:29;;;;;;;15.35;3.70;;;;;;;27.10;46.43;100155.70;2811269;84;21067;-60
2022/07/13 19:12:31;;;;;;;46.45;8.90;;;;;;;27.00;46.32;100160.94;2731520;84;20987;-59
2022/07/13 19:16:33;;;;;;;160.45;31.33;;;;;;;26.89;46.57;100160.69;2853992;82;21027;-60
2022/07/13 19:20:34;;;;;;;62.45;12.68;;;;;;;26.79;46.80;100159.08;2830667;82;21028;-59
2022/07/13 19:28:56;;;;;;;14.25;3.00;;;;;;;26.61;47.37;100164.09;2820808;84;21042;-58